createdAt,value
2019-06-26T00:00:48.915Z,87.10
2019-06-26T00:03:17.299Z,86.80
2019-06-26T00:05:45.683Z,86.50
2019-06-26T00:08:14.083Z,86.30
2019-06-26T00:10:42.456Z,86.10
2019-06-26T00:13:25.205Z,86.10
2019-06-26T00:15:40.877Z,85.80
2019-06-26T00:18:09.264Z,85.70
2019-06-26T00:20:37.647Z,85.30
2019-06-26T00:23:06.048Z,84.80
2019-06-26T00:25:34.424Z,85.80
2019-06-26T00:28:02.823Z,85.60
2019-06-26T00:30:31.202Z,85.60
2019-06-26T00:32:59.601Z,85.90
2019-06-26T00:35:27.969Z,85.50
2019-06-26T00:37:56.370Z,85.60
2019-06-26T00:40:24.748Z,86.30
2019-06-26T00:42:53.154Z,86.30
2019-06-26T00:45:21.569Z,86.10
2019-06-26T00:47:49.970Z,85.50
2019-06-26T00:50:18.599Z,85.50
2019-06-26T00:52:46.994Z,85.70
2019-06-26T00:55:15.356Z,85.60
2019-06-26T00:57:43.747Z,86.30
2019-06-26T01:00:12.101Z,89.20
2019-06-26T01:02:40.502Z,90.40
2019-06-26T01:05:10.755Z,90.00
2019-06-26T01:07:39.207Z,90.00
2019-06-26T01:10:07.677Z,90.00
2019-06-26T01:12:36.059Z,89.50
2019-06-26T01:15:05.666Z,89.20
2019-06-26T01:17:34.076Z,89.20
2019-06-26T01:20:02.444Z,89.10
2019-06-26T01:22:30.903Z,88.60
2019-06-26T01:24:59.275Z,88.50
2019-06-26T01:27:27.676Z,88.20
2019-06-26T01:29:56.055Z,87.30
2019-06-26T01:32:24.445Z,88.00
2019-06-26T01:34:52.810Z,89.40
2019-06-26T01:37:21.202Z,89.80
2019-06-26T01:39:49.584Z,89.80
2019-06-26T01:42:17.948Z,89.50
2019-06-26T01:44:46.327Z,89.20
2019-06-26T01:47:14.719Z,89.30
2019-06-26T01:49:43.085Z,89.10
2019-06-26T01:52:11.451Z,89.10
2019-06-26T01:54:39.835Z,89.70
2019-06-26T01:57:08.216Z,90.20
2019-06-26T01:59:36.623Z,90.00
2019-06-26T02:02:05.033Z,89.60
2019-06-26T02:04:33.517Z,89.00
2019-06-26T02:07:01.869Z,88.70
2019-06-26T02:09:30.276Z,88.50
2019-06-26T02:12:00.511Z,88.60
2019-06-26T02:14:31.473Z,88.30
2019-06-26T02:16:58.770Z,88.00
2019-06-26T02:19:27.173Z,88.90
2019-06-26T02:21:55.749Z,89.60
2019-06-26T02:24:24.240Z,90.90
2019-06-26T02:26:52.599Z,91.70
2019-06-26T02:29:20.995Z,92.20
2019-06-26T02:31:49.373Z,91.70
2019-06-26T02:34:17.759Z,90.80
2019-06-26T02:36:46.135Z,90.50
2019-06-26T02:39:14.540Z,90.50
2019-06-26T02:41:42.898Z,90.90
2019-06-26T02:44:11.293Z,91.70
2019-06-26T02:46:39.656Z,92.20
2019-06-26T02:49:08.040Z,91.90
2019-06-26T02:51:36.431Z,91.60
2019-06-26T02:54:04.987Z,91.60
2019-06-26T02:56:33.379Z,91.30
2019-06-26T02:59:01.760Z,91.00
2019-06-26T03:01:30.124Z,91.00
2019-06-26T03:03:58.524Z,90.40
2019-06-26T03:06:26.895Z,90.90
2019-06-26T03:08:55.284Z,90.90
2019-06-26T03:11:23.665Z,90.90
2019-06-26T03:13:52.060Z,91.30
2019-06-26T03:16:20.412Z,91.70
2019-06-26T03:18:48.802Z,91.40
2019-06-26T03:21:17.181Z,91.30
2019-06-26T03:23:45.574Z,91.00
2019-06-26T03:26:16.887Z,90.90
2019-06-26T03:28:45.299Z,90.70
2019-06-26T03:31:13.679Z,90.70
2019-06-26T03:33:42.071Z,90.50
2019-06-26T03:36:10.499Z,90.10
2019-06-26T03:38:38.973Z,90.20
2019-06-26T03:41:07.337Z,90.40
2019-06-26T03:43:35.869Z,90.40
2019-06-26T03:46:04.282Z,90.50
2019-06-26T03:48:32.649Z,90.50
2019-06-26T03:51:01.053Z,90.40
2019-06-26T03:53:29.433Z,90.40
2019-06-26T03:55:57.821Z,90.00
2019-06-26T03:58:26.179Z,89.20
2019-06-26T04:00:54.591Z,89.50
2019-06-26T04:03:22.946Z,89.50
2019-06-26T04:05:51.344Z,89.10
2019-06-26T04:08:19.714Z,89.40
2019-06-26T04:10:48.113Z,89.70
2019-06-26T04:13:16.472Z,90.20
2019-06-26T04:15:44.853Z,90.20
2019-06-26T04:18:13.218Z,90.00
2019-06-26T04:20:41.624Z,89.30
2019-06-26T04:23:09.972Z,90.00
2019-06-26T04:25:38.542Z,89.90
2019-06-26T04:28:06.934Z,90.10
2019-06-26T04:30:35.351Z,90.00
2019-06-26T04:33:03.741Z,90.20
2019-06-26T04:35:32.117Z,90.00
2019-06-26T04:40:29.403Z,90.00
2019-06-26T04:42:57.767Z,89.50
2019-06-26T04:45:26.146Z,88.90
2019-06-26T04:47:57.222Z,88.40
2019-06-26T04:50:25.587Z,88.00
2019-06-26T04:52:53.951Z,88.40
2019-06-26T04:55:22.343Z,87.60
2019-06-26T04:57:50.724Z,88.60
2019-06-26T05:00:21.719Z,89.00
2019-06-26T05:02:49.102Z,87.70
2019-06-26T05:05:17.505Z,87.90
2019-06-26T05:07:45.941Z,87.80
2019-06-26T05:10:14.326Z,89.10
2019-06-26T05:12:42.709Z,89.40
2019-06-26T05:15:11.102Z,88.60
2019-06-26T05:17:39.463Z,89.30
2019-06-26T05:20:08.042Z,88.80
2019-06-26T05:22:36.377Z,87.90
2019-06-26T05:25:06.740Z,85.90
2019-06-26T05:27:35.129Z,85.80
2019-06-26T05:30:06.751Z,84.70
2019-06-26T05:32:35.130Z,85.40
2019-06-26T05:35:05.138Z,84.00
2019-06-26T05:37:33.547Z,83.50
2019-06-26T05:40:01.922Z,81.40
2019-06-26T05:42:30.333Z,79.40
2019-06-26T05:44:58.751Z,78.40
2019-06-26T05:47:27.145Z,77.50
2019-06-26T05:49:55.506Z,77.10
2019-06-26T05:52:23.886Z,77.20
2019-06-26T05:54:52.193Z,76.10
2019-06-26T05:57:20.574Z,76.00
2019-06-26T05:59:48.957Z,78.10
2019-06-26T06:02:17.275Z,75.80
2019-06-26T06:04:45.642Z,74.10
2019-06-26T06:07:14.030Z,73.10
2019-06-26T06:09:42.403Z,72.20
2019-06-26T06:12:10.790Z,71.70
2019-06-26T06:14:39.164Z,71.60
2019-06-26T06:17:07.555Z,72.00
2019-06-26T06:19:35.923Z,70.40
2019-06-26T06:22:04.397Z,69.90
2019-06-26T06:24:32.780Z,69.60
2019-06-26T06:27:01.159Z,69.30
2019-06-26T06:29:30.820Z,69.20
2019-06-26T06:31:59.325Z,69.80
2019-06-26T06:34:27.706Z,69.20
2019-06-26T06:36:56.166Z,69.80
2019-06-26T06:39:24.535Z,68.60
2019-06-26T06:41:52.926Z,69.00
2019-06-26T06:44:21.299Z,68.70
2019-06-26T06:47:02.936Z,67.30
2019-06-26T06:49:19.720Z,67.30
2019-06-26T06:51:48.478Z,66.30
2019-06-26T06:54:16.853Z,66.70
2019-06-26T06:56:45.238Z,66.40
2019-06-26T06:59:13.590Z,67.50
2019-06-26T07:01:41.902Z,67.20
2019-06-26T07:04:10.271Z,64.50
2019-06-26T07:06:38.684Z,65.00
2019-06-26T07:09:07.105Z,64.40
2019-06-26T07:11:35.487Z,63.80
2019-06-26T07:14:03.871Z,64.10
2019-06-26T07:16:32.234Z,62.90
2019-06-26T07:19:00.541Z,64.20
2019-06-26T07:21:28.923Z,64.40
2019-06-26T07:23:57.293Z,63.00
2019-06-26T07:26:25.666Z,61.10
2019-06-26T07:28:54.059Z,62.40
2019-06-26T07:31:22.422Z,61.60
2019-06-26T07:33:50.814Z,60.80
2019-06-26T07:36:19.194Z,61.70
2019-06-26T07:38:47.584Z,60.00
2019-06-26T07:41:15.941Z,59.50
2019-06-26T07:43:44.545Z,59.20
2019-06-26T07:46:12.899Z,59.90
2019-06-26T07:48:41.312Z,60.40
2019-06-26T07:51:09.669Z,59.40
2019-06-26T07:53:38.175Z,58.40
2019-06-26T07:56:06.541Z,59.60
2019-06-26T07:58:34.983Z,60.70
2019-06-26T08:01:03.734Z,61.30
2019-06-26T08:03:32.104Z,59.30
2019-06-26T08:06:00.541Z,59.80
2019-06-26T08:08:29.099Z,59.20
2019-06-26T08:10:57.757Z,58.80
2019-06-26T08:13:26.258Z,58.80
2019-06-26T08:15:54.784Z,58.00
2019-06-26T08:18:23.168Z,57.90
2019-06-26T08:21:07.454Z,58.80
2019-06-26T08:23:21.629Z,59.20
2019-06-26T08:25:50.154Z,57.70
2019-06-26T08:28:18.546Z,58.00
2019-06-26T08:30:46.914Z,57.80
2019-06-26T08:33:15.303Z,59.10
2019-06-26T08:35:44.094Z,59.10
2019-06-26T08:38:15.445Z,57.10
2019-06-26T08:40:42.647Z,57.00
2019-06-26T08:43:11.094Z,57.60
2019-06-26T08:45:39.521Z,57.40
2019-06-26T08:48:19.345Z,56.00
2019-06-26T08:50:37.927Z,56.30
2019-06-26T08:53:06.390Z,57.50
2019-06-26T08:55:35.088Z,56.00
2019-06-26T08:58:03.513Z,56.30
2019-06-26T09:00:31.868Z,56.70
2019-06-26T09:03:00.256Z,54.90
2019-06-26T09:05:28.636Z,56.00
2019-06-26T09:07:57.056Z,54.70
2019-06-26T09:10:25.371Z,54.40
2019-06-26T09:12:53.839Z,56.00
2019-06-26T09:15:22.219Z,56.00
2019-06-26T09:17:50.650Z,55.70
2019-06-26T09:20:24.939Z,55.40
2019-06-26T09:22:53.315Z,55.90
2019-06-26T09:25:22.651Z,57.40
2019-06-26T09:27:51.078Z,55.00
2019-06-26T09:30:19.459Z,56.00
2019-06-26T09:32:47.835Z,56.00
2019-06-26T09:35:16.220Z,54.40
2019-06-26T09:37:44.597Z,55.40
2019-06-26T09:40:12.987Z,53.80
2019-06-26T09:42:41.440Z,53.90
2019-06-26T09:45:10.315Z,52.70
2019-06-26T09:47:38.679Z,53.30
2019-06-26T09:50:07.210Z,54.60
2019-06-26T09:52:35.571Z,54.80
2019-06-26T09:55:04.520Z,53.60
2019-06-26T09:57:32.878Z,52.90
2019-06-26T10:00:01.237Z,52.70
2019-06-26T10:02:29.653Z,54.50
2019-06-26T10:04:58.043Z,53.90
2019-06-26T10:07:26.410Z,55.50
2019-06-26T10:09:54.797Z,54.20
2019-06-26T10:12:23.167Z,54.80
2019-06-26T10:14:51.561Z,54.50
2019-06-26T10:17:19.927Z,53.20
2019-06-26T10:19:48.317Z,53.00
2019-06-26T10:22:16.687Z,53.30
2019-06-26T10:24:45.082Z,52.10
2019-06-26T10:27:13.447Z,53.80
2019-06-26T10:29:42.107Z,52.90
2019-06-26T10:32:10.491Z,52.40
2019-06-26T10:34:38.878Z,52.50
2019-06-26T10:37:07.243Z,52.60
2019-06-26T10:39:35.627Z,52.70
2019-06-26T10:42:04.089Z,52.20
2019-06-26T10:44:32.467Z,51.70
2019-06-26T10:47:00.903Z,52.30
2019-06-26T10:49:29.356Z,53.10
2019-06-26T10:51:57.719Z,53.70
2019-06-26T10:54:26.115Z,52.10
2019-06-26T10:56:54.475Z,52.20
2019-06-26T10:59:22.801Z,51.30
2019-06-26T11:01:51.187Z,50.60
2019-06-26T11:04:19.574Z,50.40
2019-06-26T11:06:47.948Z,50.40
2019-06-26T11:09:16.327Z,53.10
2019-06-26T11:11:44.726Z,50.40
2019-06-26T11:14:13.099Z,50.60
2019-06-26T11:16:41.490Z,47.30
2019-06-26T11:19:09.862Z,48.80
2019-06-26T11:21:38.268Z,49.90
2019-06-26T11:24:06.650Z,47.50
2019-06-26T11:26:35.040Z,48.10
2019-06-26T11:29:03.425Z,46.70
2019-06-26T11:31:31.836Z,45.60
2019-06-26T11:34:00.190Z,46.20
2019-06-26T11:36:28.616Z,47.30
2019-06-26T11:38:56.991Z,44.10
2019-06-26T11:41:25.382Z,45.30
2019-06-26T11:43:53.754Z,44.00
2019-06-26T11:46:22.211Z,44.30
2019-06-26T11:48:50.596Z,44.20
2019-06-26T11:51:19.000Z,44.70
2019-06-26T11:53:47.351Z,46.10
2019-06-26T11:56:16.851Z,46.10
2019-06-26T11:58:45.471Z,44.80
2019-06-26T12:01:13.967Z,46.20
2019-06-26T12:03:42.346Z,46.80
2019-06-26T12:06:18.913Z,48.00
2019-06-26T12:08:42.533Z,48.90
2019-06-26T12:11:10.972Z,49.80
2019-06-26T12:13:39.391Z,48.80
2019-06-26T12:16:08.545Z,47.50
2019-06-26T12:18:37.687Z,48.10
2019-06-26T12:21:07.008Z,47.90
2019-06-26T12:23:36.329Z,49.80
2019-06-26T12:26:04.823Z,48.20
2019-06-26T12:28:33.186Z,48.90
2019-06-26T12:31:01.767Z,48.10
2019-06-26T12:33:30.246Z,48.40
2019-06-26T12:35:58.877Z,47.80
2019-06-26T12:38:27.365Z,47.40
2019-06-26T12:40:55.808Z,48.70
2019-06-26T12:43:24.217Z,49.30
2019-06-26T12:45:52.585Z,46.80
2019-06-26T12:48:20.943Z,45.40
2019-06-26T12:50:49.307Z,45.50
2019-06-26T12:53:17.624Z,45.10
2019-06-26T12:55:45.995Z,45.50
2019-06-26T12:58:19.502Z,46.60
2019-06-26T13:00:44.476Z,43.40
2019-06-26T13:03:12.865Z,46.50
2019-06-26T13:05:41.218Z,43.00
2019-06-26T13:08:09.618Z,45.80
2019-06-26T13:10:48.747Z,44.40
2019-06-26T13:13:08.112Z,46.00
2019-06-26T13:15:36.491Z,44.20
2019-06-26T13:18:04.871Z,44.00
2019-06-26T13:20:33.238Z,43.70
2019-06-26T13:23:01.668Z,43.20
2019-06-26T13:25:29.999Z,43.60
2019-06-26T13:27:58.392Z,42.80
2019-06-26T13:30:35.702Z,40.70
2019-06-26T13:33:04.112Z,40.70
2019-06-26T13:35:32.481Z,42.00
2019-06-26T13:38:00.865Z,39.30
2019-06-26T13:40:29.303Z,40.20
2019-06-26T13:42:57.699Z,42.60
2019-06-26T13:45:26.111Z,39.60
2019-06-26T13:47:54.514Z,40.80
2019-06-26T13:50:22.886Z,40.70
2019-06-26T13:52:51.270Z,41.80
2019-06-26T13:55:19.656Z,40.60
2019-06-26T13:57:48.047Z,41.50
2019-06-26T14:00:16.420Z,40.70
2019-06-26T14:02:44.805Z,41.10
2019-06-26T14:05:13.306Z,43.30
2019-06-26T14:07:41.694Z,40.00
2019-06-26T14:10:10.635Z,43.30
2019-06-26T14:12:39.040Z,45.00
2019-06-26T14:15:07.554Z,46.20
2019-06-26T14:17:35.956Z,45.00
2019-06-26T14:20:05.251Z,44.50
2019-06-26T14:22:33.655Z,44.30
2019-06-26T14:25:02.012Z,44.10
2019-06-26T14:27:30.414Z,44.10
2019-06-26T14:29:58.788Z,45.60
2019-06-26T14:32:27.165Z,43.80
2019-06-26T14:34:55.464Z,43.70
2019-06-26T14:37:23.847Z,42.60
2019-06-26T14:39:52.224Z,42.90
2019-06-26T14:42:20.594Z,43.70
2019-06-26T14:44:52.602Z,43.30
2019-06-26T14:47:19.000Z,43.20
2019-06-26T14:49:47.378Z,42.50
2019-06-26T14:52:15.758Z,42.20
2019-06-26T14:54:44.152Z,41.60
2019-06-26T14:57:12.524Z,41.00
2019-06-26T14:59:40.916Z,41.40
2019-06-26T15:02:09.285Z,42.70
2019-06-26T15:04:37.666Z,40.80
2019-06-26T15:07:06.046Z,41.90
2019-06-26T15:09:34.443Z,41.40
2019-06-26T15:12:02.819Z,40.40
2019-06-26T15:14:31.367Z,40.40
2019-06-26T15:16:59.747Z,41.70
2019-06-26T15:19:28.130Z,42.40
2019-06-26T15:21:58.768Z,40.50
2019-06-26T15:24:26.538Z,40.90
2019-06-26T15:26:54.842Z,41.00
2019-06-26T15:29:23.227Z,41.60
2019-06-26T15:31:51.629Z,43.20
2019-06-26T15:34:20.020Z,43.70
2019-06-26T15:36:48.445Z,43.80
2019-06-26T15:39:16.842Z,42.80
2019-06-26T15:41:45.232Z,42.30
2019-06-26T15:44:13.632Z,41.10
2019-06-26T15:46:42.010Z,42.80
2019-06-26T15:49:10.431Z,42.00
2019-06-26T15:51:38.809Z,43.30
2019-06-26T15:54:07.210Z,42.70
2019-06-26T15:56:35.645Z,43.70
2019-06-26T15:59:04.032Z,44.20
2019-06-26T16:01:32.402Z,43.50
2019-06-26T16:04:00.795Z,43.20
2019-06-26T16:06:30.072Z,42.90
2019-06-26T16:08:58.448Z,42.80
2019-06-26T16:11:26.811Z,43.80
2019-06-26T16:13:55.207Z,45.00
2019-06-26T16:16:24.720Z,43.10
2019-06-26T16:18:57.516Z,42.90
2019-06-26T16:21:25.866Z,42.80
2019-06-26T16:23:54.345Z,41.90
2019-06-26T16:26:22.733Z,42.00
2019-06-26T16:28:51.121Z,43.30
2019-06-26T16:31:19.486Z,42.50
2019-06-26T16:33:47.850Z,43.60
2019-06-26T16:36:16.254Z,43.90
2019-06-26T16:38:44.632Z,43.80
2019-06-26T16:41:13.039Z,43.30
2019-06-26T16:43:41.412Z,43.80
2019-06-26T16:46:09.804Z,44.20
2019-06-26T16:48:38.175Z,43.50
2019-06-26T16:51:06.594Z,44.00
2019-06-26T16:53:35.656Z,43.80
2019-06-26T16:56:04.159Z,43.60
2019-06-26T16:58:32.541Z,43.60
2019-06-26T17:01:00.919Z,42.70
2019-06-26T17:03:29.291Z,43.30
2019-06-26T17:05:57.696Z,42.90
2019-06-26T17:08:26.075Z,43.20
2019-06-26T17:10:54.462Z,43.80
2019-06-26T17:13:22.851Z,45.20
2019-06-26T17:15:51.284Z,44.90
2019-06-26T17:18:20.050Z,44.60
2019-06-26T17:20:48.606Z,44.90
2019-06-26T17:23:17.043Z,45.10
2019-06-26T17:25:45.431Z,44.90
2019-06-26T17:28:13.817Z,45.00
2019-06-26T17:30:42.195Z,45.10
2019-06-26T17:33:10.579Z,45.00
2019-06-26T17:35:38.966Z,45.40
2019-06-26T17:38:07.331Z,45.50
2019-06-26T17:40:35.806Z,46.30
2019-06-26T17:43:12.536Z,46.30
2019-06-26T17:45:35.056Z,46.30
2019-06-26T17:48:03.410Z,46.80
2019-06-26T17:50:31.910Z,47.20
2019-06-26T17:53:00.480Z,47.30
2019-06-26T17:55:28.857Z,48.00
2019-06-26T17:57:57.239Z,48.60
2019-06-26T18:00:28.870Z,48.60
2019-06-26T18:02:57.167Z,49.10
2019-06-26T18:05:25.553Z,49.40
2019-06-26T18:07:54.038Z,49.70
2019-06-26T18:10:22.434Z,49.50
2019-06-26T18:12:50.806Z,50.40
2019-06-26T18:15:19.179Z,50.30
2019-06-26T18:17:47.538Z,50.10
2019-06-26T18:20:17.646Z,50.60
2019-06-26T18:22:45.934Z,50.60
2019-06-26T18:25:16.572Z,50.80
2019-06-26T18:27:44.355Z,51.70
2019-06-26T18:30:12.714Z,51.80
2019-06-26T18:32:41.123Z,52.30
2019-06-26T18:35:09.488Z,53.60
2019-06-26T18:37:38.572Z,53.80
2019-06-26T18:40:07.007Z,54.60
2019-06-26T18:42:36.269Z,58.50
2019-06-26T18:45:05.729Z,58.10
2019-06-26T18:47:34.346Z,59.40
2019-06-26T18:50:03.464Z,59.40
2019-06-26T18:52:31.859Z,59.10
2019-06-26T18:55:00.325Z,59.30
2019-06-26T18:57:28.725Z,61.60
2019-06-26T18:59:57.113Z,63.20
2019-06-26T19:02:25.495Z,63.50
2019-06-26T19:04:54.293Z,64.10
2019-06-26T19:07:22.655Z,65.30
2019-06-26T19:09:51.044Z,65.00
2019-06-26T19:12:19.427Z,65.30
2019-06-26T19:14:47.970Z,65.60
2019-06-26T19:17:16.543Z,65.80
2019-06-26T19:19:44.894Z,66.00
2019-06-26T19:22:13.282Z,66.60
2019-06-26T19:24:41.646Z,66.80
2019-06-26T19:27:10.049Z,65.70
2019-06-26T19:29:38.891Z,66.40
2019-06-26T19:32:07.566Z,66.80
2019-06-26T19:34:36.029Z,65.50
2019-06-26T19:37:04.427Z,66.60
2019-06-26T19:39:32.802Z,67.30
2019-06-26T19:42:01.212Z,67.10
2019-06-26T19:44:29.609Z,67.10
2019-06-26T19:46:58.004Z,68.60
2019-06-26T19:49:26.379Z,70.50
2019-06-26T19:51:57.556Z,71.20
2019-06-26T19:54:27.759Z,71.20
2019-06-26T19:56:56.005Z,72.00
2019-06-26T19:59:24.381Z,72.40
2019-06-26T20:01:52.789Z,69.70
2019-06-26T20:04:21.201Z,69.90
2019-06-26T20:06:49.620Z,69.80
2019-06-26T20:09:18.101Z,70.30
2019-06-26T20:11:46.543Z,70.00
2019-06-26T20:14:14.994Z,70.10
2019-06-26T20:16:51.202Z,70.30
2019-06-26T20:19:19.573Z,71.20
2019-06-26T20:21:51.307Z,71.60
2019-06-26T20:24:19.931Z,71.00
2019-06-26T20:26:50.184Z,70.30
2019-06-26T20:29:18.845Z,70.60
2019-06-26T20:31:47.620Z,71.10
2019-06-26T20:34:16.353Z,72.10
2019-06-26T20:36:44.724Z,73.70
2019-06-26T20:39:13.135Z,74.80
2019-06-26T20:41:41.523Z,74.40
2019-06-26T20:44:09.938Z,74.60
2019-06-26T20:46:38.858Z,75.30
2019-06-26T20:49:07.293Z,75.40
2019-06-26T20:51:35.670Z,75.80
2019-06-26T20:54:04.134Z,75.80
2019-06-26T20:56:32.576Z,76.20
2019-06-26T20:59:00.962Z,76.60
2019-06-26T21:01:29.392Z,76.70
2019-06-26T21:03:57.787Z,76.20
2019-06-26T21:06:26.165Z,76.70
2019-06-26T21:08:54.565Z,77.60
2019-06-26T21:11:22.955Z,77.80
2019-06-26T21:13:51.395Z,77.80
2019-06-26T21:16:19.753Z,78.10
2019-06-26T21:18:48.153Z,78.20
2019-06-26T21:21:16.541Z,77.80
2019-06-26T21:23:45.077Z,78.20
2019-06-26T21:26:13.464Z,78.10
2019-06-26T21:28:41.894Z,78.20
2019-06-26T21:31:10.318Z,78.40
2019-06-26T21:33:38.684Z,78.40
2019-06-26T21:36:07.069Z,79.80
2019-06-26T21:38:35.483Z,81.20
2019-06-26T21:41:03.956Z,82.10
2019-06-26T21:43:32.482Z,82.00
2019-06-26T21:46:00.881Z,81.80
2019-06-26T21:48:29.372Z,81.50
2019-06-26T21:50:57.758Z,81.40
2019-06-26T21:53:26.165Z,81.20
2019-06-26T21:55:54.548Z,81.00
2019-06-26T21:58:22.949Z,81.20
2019-06-26T22:00:51.339Z,81.60
2019-06-26T22:03:19.930Z,81.40
2019-06-26T22:05:48.306Z,81.10
2019-06-26T22:08:16.730Z,81.50
2019-06-26T22:10:45.106Z,82.90
2019-06-26T22:13:13.499Z,82.90
2019-06-26T22:15:41.910Z,82.60
2019-06-26T22:18:10.290Z,83.00
2019-06-26T22:20:38.689Z,82.30
2019-06-26T22:23:07.116Z,81.50
2019-06-26T22:25:49.907Z,82.00
2019-06-26T22:28:05.563Z,83.00
2019-06-26T22:30:33.976Z,83.30
2019-06-26T22:33:02.462Z,82.90
2019-06-26T22:35:30.876Z,82.70
2019-06-26T22:37:59.254Z,82.70
2019-06-26T22:40:27.679Z,82.90
2019-06-26T22:42:56.059Z,82.90
2019-06-26T22:45:24.469Z,83.30
2019-06-26T22:47:52.940Z,83.30
2019-06-26T22:50:21.354Z,83.30
2019-06-26T22:52:49.749Z,83.10
2019-06-26T22:55:18.173Z,83.20
2019-06-26T22:57:46.546Z,83.30
2019-06-26T23:00:15.731Z,83.50
2019-06-26T23:02:44.126Z,83.30
2019-06-26T23:05:12.549Z,82.90
2019-06-26T23:07:40.937Z,82.50
2019-06-26T23:10:09.343Z,82.80
2019-06-26T23:12:37.744Z,83.90
2019-06-26T23:15:07.501Z,84.40
2019-06-26T23:17:35.896Z,84.70
2019-06-26T23:20:08.441Z,84.80
2019-06-26T23:22:36.839Z,85.40
2019-06-26T23:25:07.937Z,85.60
2019-06-26T23:27:36.331Z,86.40
2019-06-26T23:30:10.688Z,87.70
2019-06-26T23:32:39.074Z,87.50
2019-06-26T23:35:07.498Z,87.10
2019-06-26T23:37:35.887Z,86.30
2019-06-26T23:40:05.538Z,85.40
2019-06-26T23:42:33.941Z,84.80
2019-06-26T23:45:02.350Z,84.20
2019-06-26T23:47:30.749Z,84.90
2019-06-26T23:49:59.159Z,84.80
2019-06-26T23:52:27.577Z,85.20
2019-06-26T23:54:56.007Z,85.30
2019-06-26T23:57:24.399Z,85.30
2019-06-26T23:59:52.807Z,85.30
